Time;durP1;ratioP1;P1;durP2;ratioP2;P2;SDS_P1;SDS_P2;PMS_P1;PMS_P2;Temp;Humidity;BMP_temperature;BMP_pressure;BME280_temperature;BME280_humidity;BME280_pressure;Samples;Min_cycle;Max_cycle;Signal;HPM_P1;HPM_P2
2023/09/19 00:00:19;;;;;;;9.07;2.70;;;16.90;33.70;;;;;;5034840;28;20177;-84
2023/09/19 00:02:47;;;;;;;10.03;3.27;;;17.00;33.20;;;;;;5034809;28;20177;-85
2023/09/19 00:05:13;;;;;;;11.70;3.20;;;17.00;29.00;;;;;;5033210;28;20181;-83
2023/09/19 00:08:00;;;;;;;11.70;3.27;;;16.90;31.30;;;;;;5038356;28;20166;-85
2023/09/19 00:10:26;;;;;;;10.03;3.23;;;16.90;30.70;;;;;;5034192;28;20174;-85
2023/09/19 00:12:58;;;;;;;11.03;3.07;;;16.90;30.90;;;;;;5034270;28;20174;-81
2023/09/19 00:15:24;;;;;;;10.10;2.93;;;16.80;36.90;;;;;;5034105;28;20567;-88
2023/09/19 00:17:54;;;;;;;12.87;3.30;;;16.80;40.90;;;;;;5035909;28;20254;-82
2023/09/19 00:20:22;;;;;;;8.53;2.60;;;16.80;37.20;;;;;;5033734;28;20185;-84
2023/09/19 00:22:51;;;;;;;7.80;2.37;;;16.90;37.50;;;;;;5033823;28;20264;-83
2023/09/19 00:25:18;;;;;;;8.33;3.00;;;16.90;35.10;;;;;;5034070;28;20209;-85
2023/09/19 00:27:46;;;;;;;9.70;2.43;;;16.80;39.10;;;;;;5034847;28;20825;-84
2023/09/19 00:30:15;;;;;;;8.37;2.57;;;16.80;39.60;;;;;;5034723;28;20201;-83
2023/09/19 00:32:44;;;;;;;13.97;3.40;;;16.70;43.70;;;;;;5033734;28;20175;-83
2023/09/19 00:35:15;;;;;;;9.77;2.93;;;16.50;45.70;;;;;;5035013;28;20733;-81
2023/09/19 00:37:40;;;;;;;9.73;2.60;;;16.60;46.00;;;;;;5032742;28;20173;-83
2023/09/19 00:40:11;;;;;;;12.50;3.33;;;16.40;47.10;;;;;;5033893;28;20612;-81
2023/09/19 00:42:38;;;;;;;9.93;2.77;;;16.50;46.60;;;;;;5032862;28;20187;-81
2023/09/19 00:45:05;;;;;;;10.20;2.80;;;16.40;46.40;;;;;;5033198;28;20212;-81
2023/09/19 00:47:31;;;;;;;12.00;3.40;;;16.50;38.50;;;;;;5034237;28;20237;-81
2023/09/19 00:49:58;;;;;;;11.63;3.27;;;16.50;37.20;;;;;;5033773;28;20180;-81
2023/09/19 00:52:25;;;;;;;11.23;3.17;;;16.50;36.50;;;;;;5032386;28;20165;-84
2023/09/19 00:54:52;;;;;;;7.77;3.17;;;16.50;36.50;;;;;;5034155;28;20210;-82
2023/09/19 00:57:19;;;;;;;11.53;2.97;;;16.50;36.30;;;;;;5033879;28;20169;-82
2023/09/19 00:59:48;;;;;;;8.83;3.30;;;16.50;33.10;;;;;;5032843;28;20654;-81
2023/09/19 01:02:15;;;;;;;9.37;2.90;;;16.40;33.40;;;;;;5033412;28;20176;-80
2023/09/19 01:04:42;;;;;;;12.40;2.97;;;16.40;33.80;;;;;;5032796;28;20205;-82
2023/09/19 01:07:09;;;;;;;9.97;2.70;;;16.40;29.80;;;;;;5032379;28;20176;-80
2023/09/19 01:09:35;;;;;;;11.90;2.90;;;16.40;25.00;;;;;;5033233;28;20202;-82
2023/09/19 01:12:04;;;;;;;9.77;2.77;;;16.40;24.40;;;;;;5031619;28;20174;-82
2023/09/19 01:14:44;;;;;;;11.10;2.97;;;16.30;20.90;;;;;;5032169;28;20208;-82
2023/09/19 01:17:35;;;;;;;11.40;3.43;;;16.30;20.60;;;;;;5030473;28;20181;-82
2023/09/19 01:20:26;;;;;;;10.80;2.90;;;16.30;16.10;;;;;;5033202;28;20247;-82
2023/09/19 01:23:11;;;;;;;13.07;3.27;;;16.40;16.90;;;;;;5031952;28;20169;-81
2023/09/19 01:26:18;;;;;;;9.53;2.83;;;16.30;17.90;;;;;;5031801;28;20727;-81
2023/09/19 01:29:01;;;;;;;12.33;3.20;;;16.30;18.80;;;;;;5032559;28;20534;-81
2023/09/19 01:31:34;;;;;;;15.23;3.53;;;16.20;22.20;;;;;;5031917;28;20181;-81
2023/09/19 01:34:04;;;;;;;11.90;2.87;;;16.30;19.00;;;;;;5032412;28;20806;-83
2023/09/19 01:36:35;;;;;;;15.30;3.60;;;16.30;21.90;;;;;;5031144;28;20240;-82
2023/09/19 01:39:10;;;;;;;9.57;3.20;;;16.20;22.80;;;;;;5031485;28;20206;-82
2023/09/19 01:41:38;;;;;;;10.33;3.17;;;16.30;19.60;;;;;;5031822;28;20556;-81
2023/09/19 01:44:07;;;;;;;11.87;3.00;;;16.30;18.10;;;;;;5032735;28;20184;-82
2023/09/19 01:46:35;;;;;;;15.57;3.67;;;16.30;14.70;;;;;;5032663;28;20174;-82
2023/09/19 01:49:08;;;;;;;9.17;2.73;;;16.40;14.10;;;;;;5034190;28;20697;-80
2023/09/19 01:51:43;;;;;;;10.40;2.90;;;16.30;11.50;;;;;;5032930;28;20581;-81
2023/09/19 01:54:12;;;;;;;9.13;3.83;;;16.30;9.90;;;;;;5031540;28;20200;-81
2023/09/19 01:57:05;;;;;;;11.93;3.07;;;16.30;9.80;;;;;;5033069;28;20212;-82
2023/09/19 01:59:40;;;;;;;13.27;3.40;;;16.30;9.90;;;;;;5032670;28;20263;-85
2023/09/19 02:02:06;;;;;;;11.23;2.87;;;16.30;5.50;;;;;;5032959;28;20163;-82
2023/09/19 02:04:34;;;;;;;12.93;3.00;;;16.40;1.30;;;;;;5032211;28;20178;-83
2023/09/19 02:07:01;;;;;;;11.27;3.17;;;16.30;1.20;;;;;;5015617;28;20177;-82
2023/09/19 02:09:27;;;;;;;15.33;2.90;;;16.20;3.40;;;;;;5032758;28;20174;-82
2023/09/19 02:11:52;;;;;;;11.83;3.47;;;16.30;2.00;;;;;;5031468;28;20615;-82
2023/09/19 02:14:19;;;;;;;12.40;3.40;;;16.20;1.00;;;;;;5033887;28;20179;-82
2023/09/19 02:16:45;;;;;;;11.60;2.93;;;16.20;1.40;;;;;;5038284;28;20204;-81
2023/09/19 02:19:11;;;;;;;9.43;3.07;;;16.10;2.40;;;;;;5037132;28;20172;-81
2023/09/19 02:21:39;;;;;;;11.67;3.80;;;16.30;1.00;;;;;;5035261;28;20238;-82
2023/09/19 02:24:08;;;;;;;8.80;3.63;;;16.20;1.00;;;;;;5056484;28;20166;-80
2023/09/19 02:26:36;;;;;;;8.13;2.77;;;16.20;1.00;;;;;;5052939;28;20186;-81
2023/09/19 02:29:04;;;;;;;10.87;3.33;;;16.20;1.00;;;;;;5041526;28;20618;-81
2023/09/19 02:31:30;;;;;;;9.23;2.73;;;16.20;1.00;;;;;;5037714;28;20170;-82
2023/09/19 02:34:00;;;;;;;16.17;3.57;;;16.20;1.00;;;;;;5037094;28;20216;-82
2023/09/19 02:36:26;;;;;;;13.63;3.30;;;16.20;1.00;;;;;;5037428;28;20201;-81
2023/09/19 02:38:52;;;;;;;12.17;2.93;;;16.30;1.00;;;;;;5036220;28;20258;-80
2023/09/19 02:41:18;;;;;;;12.10;3.33;;;16.30;1.00;;;;;;5038158;28;20200;-82
2023/09/19 02:43:44;;;;;;;10.33;3.47;;;16.30;1.00;;;;;;5037200;28;20188;-82
2023/09/19 02:46:11;;;;;;;11.57;3.20;;;16.20;1.00;;;;;;5042393;28;20151;-84
2023/09/19 02:48:37;;;;;;;11.10;3.03;;;16.10;1.00;;;;;;5059853;28;20183;-82
2023/09/19 02:51:05;;;;;;;15.30;3.40;;;16.10;1.00;;;;;;5053614;28;20178;-82
2023/09/19 02:53:33;;;;;;;12.67;3.40;;;16.10;1.00;;;;;;5038328;28;20197;-81
2023/09/19 02:56:03;;;;;;;8.27;2.60;;;16.10;1.00;;;;;;5037192;28;20287;-81
2023/09/19 02:58:35;;;;;;;12.70;3.33;;;16.10;1.00;;;;;;5038358;28;20155;-81
2023/09/19 03:01:09;;;;;;;8.63;2.37;;;16.10;1.00;;;;;;5037933;28;20212;-80
2023/09/19 03:03:34;;;;;;;13.63;3.30;;;16.00;1.00;;;;;;5037512;28;20193;-80
2023/09/19 03:06:03;;;;;;;10.83;2.97;;;16.00;1.00;;;;;;5035779;28;20243;-82
2023/09/19 03:08:29;;;;;;;9.50;2.97;;;16.00;1.00;;;;;;5029989;28;20220;-84
2023/09/19 03:10:55;;;;;;;5.60;2.30;;;16.00;1.60;;;;;;5016887;28;20179;-83
2023/09/19 03:13:21;;;;;;;12.00;3.17;;;16.00;1.00;;;;;;5016212;28;20182;-82
2023/09/19 03:15:49;;;;;;;11.90;3.20;;;16.10;1.00;;;;;;5017035;28;20205;-79
2023/09/19 03:18:15;;;;;;;10.33;2.60;;;16.00;1.00;;;;;;5014969;28;20174;-82
2023/09/19 03:20:40;;;;;;;9.17;2.73;;;16.00;5.20;;;;;;5015136;28;20270;-82
2023/09/19 03:23:06;;;;;;;9.50;3.03;;;15.90;11.30;;;;;;5014921;28;20201;-82
2023/09/19 03:25:35;;;;;;;12.03;3.03;;;15.80;19.40;;;;;;5015072;28;20230;-82
2023/09/19 03:28:05;;;;;;;10.80;3.37;;;15.70;28.20;;;;;;5016486;28;20167;-81
2023/09/19 03:30:32;;;;;;;10.57;2.90;;;15.60;30.60;;;;;;5016101;28;20244;-82
2023/09/19 03:32:58;;;;;;;11.30;3.07;;;15.70;30.90;;;;;;5015187;28;20172;-82
2023/09/19 03:35:24;;;;;;;9.10;2.93;;;15.70;29.60;;;;;;5016312;28;20218;-82
2023/09/19 03:37:52;;;;;;;14.70;3.03;;;15.70;29.80;;;;;;5015092;28;20180;-83
2023/09/19 03:40:21;;;;;;;10.37;3.17;;;15.70;30.80;;;;;;5015641;28;20602;-83
2023/09/19 03:42:48;;;;;;;8.10;2.60;;;15.70;33.50;;;;;;5014376;28;20235;-81
2023/09/19 03:45:16;;;;;;;9.30;2.97;;;15.70;31.60;;;;;;5016372;28;20519;-82
2023/09/19 03:47:41;;;;;;;8.87;3.07;;;15.70;28.90;;;;;;5014126;28;20179;-82
2023/09/19 03:50:08;;;;;;;11.67;3.77;;;15.70;32.00;;;;;;5014719;28;20174;-82
2023/09/19 03:52:34;;;;;;;13.60;3.57;;;15.70;31.50;;;;;;5015611;28;20178;-80
2023/09/19 03:55:01;;;;;;;11.97;2.73;;;15.60;31.30;;;;;;5014104;28;20285;-82
2023/09/19 03:57:27;;;;;;;14.57;3.20;;;15.60;35.30;;;;;;5016741;28;20205;-84
2023/09/19 03:59:53;;;;;;;7.73;2.80;;;15.60;35.20;;;;;;5019241;28;20166;-81
2023/09/19 04:02:23;;;;;;;10.77;2.73;;;15.60;37.20;;;;;;5018022;28;20173;-80
2023/09/19 04:04:50;;;;;;;14.27;2.87;;;15.60;36.30;;;;;;5018865;28;20197;-78
2023/09/19 04:07:16;;;;;;;8.23;2.60;;;15.50;38.10;;;;;;5021661;28;20170;-81
2023/09/19 04:09:48;;;;;;;12.87;3.60;;;15.50;39.30;;;;;;5027339;28;20175;-80
2023/09/19 04:12:16;;;;;;;11.67;3.30;;;15.60;38.10;;;;;;5016265;28;20167;-77
2023/09/19 04:14:43;;;;;;;13.40;2.73;;;15.60;35.70;;;;;;5016370;28;20171;-79
2023/09/19 04:17:10;;;;;;;10.70;2.80;;;15.60;35.90;;;;;;5014665;28;20178;-81
2023/09/19 04:19:37;;;;;;;10.27;2.83;;;15.70;32.80;;;;;;5013792;28;20170;-81
2023/09/19 04:22:04;;;;;;;11.33;2.90;;;15.60;35.20;;;;;;5014407;28;20185;-80
2023/09/19 04:24:30;;;;;;;8.10;2.77;;;15.60;36.80;;;;;;4999100;28;20646;-81
2023/09/19 04:26:57;;;;;;;12.07;2.97;;;15.70;32.40;;;;;;5015006;28;20162;-81
2023/09/19 04:29:22;;;;;;;9.43;2.93;;;15.60;38.80;;;;;;5013363;28;20272;-83
2023/09/19 04:31:54;;;;;;;12.00;3.33;;;15.60;39.70;;;;;;5016520;28;20195;-83
2023/09/19 04:34:20;;;;;;;10.67;2.93;;;15.60;39.90;;;;;;5015431;28;20178;-81
2023/09/19 04:36:45;;;;;;;11.93;3.23;;;15.60;46.10;;;;;;5012072;28;20235;-83
2023/09/19 04:39:12;;;;;;;9.33;2.97;;;15.50;46.50;;;;;;5013808;28;20251;-81
2023/09/19 04:41:40;;;;;;;12.17;2.90;;;15.50;48.00;;;;;;5015136;28;20621;-81
2023/09/19 04:44:07;;;;;;;9.23;2.80;;;15.50;47.40;;;;;;5013019;28;20213;-83
2023/09/19 04:46:33;;;;;;;10.37;3.10;;;15.50;46.30;;;;;;5014969;28;20655;-81
2023/09/19 04:49:00;;;;;;;11.83;3.47;;;15.60;45.80;;;;;;5014548;28;20178;-82
2023/09/19 04:51:29;;;;;;;11.70;3.27;;;15.50;47.40;;;;;;5013355;28;20225;-82
2023/09/19 04:53:55;;;;;;;13.70;3.37;;;15.40;50.40;;;;;;5013269;28;20209;-81
2023/09/19 04:56:23;;;;;;;9.63;3.17;;;15.50;46.40;;;;;;5013084;28;20661;-81
2023/09/19 04:58:49;;;;;;;12.17;3.67;;;15.50;47.10;;;;;;5014963;28;20657;-82
2023/09/19 05:01:16;;;;;;;8.80;2.73;;;15.50;47.60;;;;;;5015829;28;20210;-83
2023/09/19 05:03:42;;;;;;;14.17;3.33;;;15.40;49.00;;;;;;5015382;28;20178;-82
2023/09/19 05:06:10;;;;;;;9.80;2.90;;;15.50;50.80;;;;;;5014543;28;20225;-82
2023/09/19 05:08:35;;;;;;;11.60;3.60;;;15.40;47.00;;;;;;5016288;28;20250;-82
2023/09/19 05:11:04;;;;;;;14.53;3.13;;;15.40;48.90;;;;;;5015174;28;20605;-80
2023/09/19 05:13:31;;;;;;;10.67;2.63;;;15.40;49.90;;;;;;5013512;28;20178;-83
2023/09/19 05:16:02;;;;;;;11.87;3.07;;;15.40;50.40;;;;;;5014780;28;20249;-83
2023/09/19 05:18:28;;;;;;;14.13;3.00;;;15.40;46.10;;;;;;5014424;28;20269;-81
2023/09/19 05:20:54;;;;;;;9.63;2.80;;;15.40;49.30;;;;;;5012944;28;20330;-83
2023/09/19 05:23:21;;;;;;;10.83;3.10;;;15.40;51.60;;;;;;5012866;28;20269;-82
2023/09/19 05:25:48;;;;;;;13.47;3.20;;;15.40;50.60;;;;;;5013013;28;20174;-80
2023/09/19 05:28:15;;;;;;;7.47;2.87;;;15.40;50.20;;;;;;5014876;28;20646;-82
2023/09/19 05:30:43;;;;;;;14.73;3.20;;;15.40;52.90;;;;;;5016331;28;20167;-80
2023/09/19 05:33:09;;;;;;;14.63;3.73;;;15.40;53.00;;;;;;5015342;28;20167;-82
2023/09/19 05:35:39;;;;;;;9.97;3.30;;;15.30;54.70;;;;;;5017698;28;20217;-82
2023/09/19 05:38:08;;;;;;;12.13;3.10;;;15.20;54.70;;;;;;5016380;28;20185;-81
2023/09/19 05:40:35;;;;;;;7.60;2.63;;;15.30;56.00;;;;;;5019152;28;20186;-81
2023/09/19 05:43:02;;;;;;;12.53;3.40;;;15.30;57.30;;;;;;5022229;28;20237;-81
2023/09/19 05:45:30;;;;;;;13.13;2.93;;;15.30;57.50;;;;;;5021773;28;20171;-82
2023/09/19 05:48:11;;;;;;;11.90;3.70;;;15.40;55.40;;;;;;5003846;28;20623;-81
2023/09/19 05:50:38;;;;;;;9.33;2.80;;;15.40;55.70;;;;;;5038965;28;20307;-83
2023/09/19 05:53:04;;;;;;;13.80;3.40;;;15.40;55.90;;;;;;5040041;28;20195;-82
2023/09/19 05:55:30;;;;;;;11.90;3.90;;;15.50;56.00;;;;;;5041388;28;20203;-82
2023/09/19 05:57:59;;;;;;;16.33;3.00;;;15.50;51.70;;;;;;5038361;28;20613;-79
2023/09/19 06:00:27;;;;;;;11.33;3.23;;;15.50;51.90;;;;;;5039422;28;20515;-82
2023/09/19 06:02:55;;;;;;;15.13;3.13;;;15.60;51.00;;;;;;5036769;28;20300;-81
2023/09/19 06:05:21;;;;;;;11.67;2.90;;;15.50;52.30;;;;;;5037944;28;20696;-80
2023/09/19 06:07:47;;;;;;;6.67;2.80;;;15.50;51.80;;;;;;5038632;28;20175;-81
2023/09/19 06:10:23;;;;;;;12.17;3.83;;;15.50;52.50;;;;;;5039403;28;20163;-84
2023/09/19 06:12:49;;;;;;;12.80;2.80;;;15.60;52.00;;;;;;5056826;28;20145;-82
2023/09/19 06:15:15;;;;;;;9.07;2.97;;;15.60;50.80;;;;;;5041166;28;20211;-82
2023/09/19 06:17:43;;;;;;;10.20;2.97;;;15.60;50.70;;;;;;5026747;28;20187;-82
2023/09/19 06:20:14;;;;;;;9.93;3.13;;;15.50;50.90;;;;;;5019026;28;20178;-83
2023/09/19 06:22:46;;;;;;;11.67;3.50;;;15.60;51.10;;;;;;5021376;28;20178;-81
2023/09/19 06:25:19;;;;;;;12.07;3.13;;;15.60;49.30;;;;;;5030941;28;20160;-84
2023/09/19 06:27:54;;;;;;;11.67;3.07;;;15.60;50.60;;;;;;5032053;28;20158;-82
2023/09/19 06:30:21;;;;;;;10.70;2.60;;;15.60;48.90;;;;;;5023323;28;20175;-84
2023/09/19 06:32:48;;;;;;;15.37;3.60;;;15.70;47.70;;;;;;5019360;28;20166;-82
2023/09/19 06:35:15;;;;;;;11.17;3.00;;;15.70;47.10;;;;;;5019031;28;20214;-83
2023/09/19 06:37:42;;;;;;;12.13;3.03;;;15.80;45.20;;;;;;5019724;28;20186;-82
2023/09/19 06:40:13;;;;;;;7.50;2.70;;;15.80;43.60;;;;;;5001882;28;20194;-81
2023/09/19 06:43:02;;;;;;;14.70;3.47;;;15.70;44.50;;;;;;5017187;28;20539;-81
2023/09/19 06:45:28;;;;;;;10.00;2.50;;;15.80;42.40;;;;;;5018181;28;20187;-82
2023/09/19 06:47:57;;;;;;;10.37;2.73;;;15.90;40.80;;;;;;5031885;28;20197;-83
2023/09/19 06:50:23;;;;;;;11.93;2.73;;;16.00;38.50;;;;;;5038927;28;20171;-85
2023/09/19 06:52:55;;;;;;;11.13;2.90;;;15.90;37.60;;;;;;5037048;28;20198;-86
2023/09/19 06:55:23;;;;;;;10.97;2.67;;;16.10;35.70;;;;;;5038097;28;20197;-86
2023/09/19 06:57:49;;;;;;;11.93;3.33;;;16.10;34.10;;;;;;5038636;28;20242;-85
2023/09/19 07:00:18;;;;;;;7.53;2.53;;;16.20;26.70;;;;;;5040547;28;20196;-86
2023/09/19 07:03:10;;;;;;;11.17;3.00;;;16.20;25.70;;;;;;5042487;28;20247;-85
2023/09/19 07:05:42;;;;;;;11.10;2.93;;;16.10;28.90;;;;;;5039704;28;20174;-86
2023/09/19 07:08:13;;;;;;;14.73;3.60;;;16.10;29.10;;;;;;5037808;28;20254;-83
2023/09/19 07:10:49;;;;;;;12.90;3.40;;;16.10;31.60;;;;;;5043424;28;20169;-81
2023/09/19 07:13:17;;;;;;;9.20;3.60;;;16.10;32.50;;;;;;5040409;28;20265;-83
2023/09/19 07:15:46;;;;;;;13.43;2.90;;;16.10;34.10;;;;;;5039527;28;20196;-87
2023/09/19 07:18:15;;;;;;;13.20;3.37;;;16.30;27.90;;;;;;5039826;28;20176;-87
2023/09/19 07:20:45;;;;;;;14.13;3.00;;;16.30;26.70;;;;;;5039121;28;20528;-87
2023/09/19 07:23:13;;;;;;;16.20;3.43;;;16.30;24.00;;;;;;5039498;28;20180;-84
2023/09/19 07:25:40;;;;;;;11.43;2.70;;;16.30;25.90;;;;;;5039599;28;20180;-84
2023/09/19 07:28:07;;;;;;;11.37;3.13;;;16.30;24.70;;;;;;5039698;28;20596;-87
2023/09/19 07:30:37;;;;;;;8.90;2.63;;;16.40;23.80;;;;;;5039323;28;20169;-86
2023/09/19 07:33:05;;;;;;;14.00;3.10;;;16.40;21.40;;;;;;5039522;28;20167;-85
2023/09/19 07:35:31;;;;;;;11.30;3.47;;;16.50;17.50;;;;;;5039090;28;20208;-83
2023/09/19 07:37:58;;;;;;;13.27;2.90;;;16.60;16.00;;;;;;5052202;28;20291;-87
2023/09/19 07:40:26;;;;;;;13.23;3.13;;;16.60;13.60;;;;;;5053721;28;20203;-85
2023/09/19 07:42:52;;;;;;;8.57;2.80;;;16.70;12.70;;;;;;5047007;28;20174;-85
2023/09/19 07:45:18;;;;;;;14.40;2.83;;;16.70;10.60;;;;;;5046080;28;20190;-84
2023/09/19 07:47:49;;;;;;;12.60;3.20;;;16.70;8.90;;;;;;5045532;28;20166;-85
2023/09/19 07:50:18;;;;;;;13.37;2.97;;;16.80;8.70;;;;;;5039752;28;20170;-87
2023/09/19 07:52:50;;;;;;;10.97;3.07;;;16.80;5.10;;;;;;5036311;28;20166;-80
2023/09/19 07:55:17;;;;;;;11.17;3.37;;;16.90;3.20;;;;;;5034174;28;20375;-82
2023/09/19 07:57:43;;;;;;;11.80;2.63;;;16.90;5.20;;;;;;5034015;28;20194;-81
2023/09/19 08:00:10;;;;;;;11.23;3.17;;;17.00;1.00;;;;;;5034524;28;20714;-82
2023/09/19 08:02:38;;;;;;;9.57;2.93;;;17.00;1.00;;;;;;5035566;28;20253;-81
2023/09/19 08:05:09;;;;;;;13.17;3.03;;;17.00;1.00;;;;;;5036175;28;20176;-82
2023/09/19 08:07:40;;;;;;;9.40;3.00;;;16.90;1.00;;;;;;5035340;28;20238;-81
2023/09/19 08:10:08;;;;;;;12.93;3.43;;;17.00;1.00;;;;;;5034560;28;20259;-80
2023/09/19 08:12:37;;;;;;;14.97;2.90;;;17.10;1.00;;;;;;5036537;28;20188;-80
2023/09/19 08:15:03;;;;;;;12.33;3.30;;;17.10;1.00;;;;;;5037496;28;20216;-85
2023/09/19 08:17:33;;;;;;;12.93;2.93;;;17.20;1.00;;;;;;5037019;28;20242;-80
2023/09/19 08:20:00;;;;;;;12.50;3.10;;;17.30;1.00;;;;;;5035554;28;20175;-82
2023/09/19 08:22:27;;;;;;;10.07;3.00;;;17.40;1.00;;;;;;5037887;28;20177;-81
2023/09/19 08:24:54;;;;;;;13.10;3.23;;;17.40;1.00;;;;;;5036033;28;20168;-82
2023/09/19 08:27:19;;;;;;;10.70;2.70;;;17.40;1.00;;;;;;5035723;28;20181;-81
2023/09/19 08:29:46;;;;;;;10.43;2.70;;;17.50;1.00;;;;;;5035613;28;20161;-83
2023/09/19 08:32:12;;;;;;;12.57;2.97;;;17.60;1.00;;;;;;5034810;28;20170;-81
2023/09/19 08:34:46;;;;;;;11.07;2.70;;;17.70;1.00;;;;;;5175509;27;20625;-81
2023/09/19 08:37:11;;;;;;;13.37;3.40;;;17.60;1.00;;;;;;5155012;27;20184;-82
2023/09/19 08:39:37;;;;;;;14.47;2.97;;;17.70;1.00;;;;;;5153866;27;20568;-82
2023/09/19 08:42:04;;;;;;;10.77;2.70;;;17.70;1.00;;;;;;5160808;27;20165;-80
2023/09/19 08:44:30;;;;;;;10.13;3.70;;;17.80;1.00;;;;;;5156303;27;20241;-81
2023/09/19 08:47:13;;;;;;;12.87;3.37;;;18.00;1.00;;;;;;5152988;27;20214;-82
2023/09/19 08:50:00;;;;;;;10.20;2.90;;;18.10;1.00;;;;;;5155055;27;20635;-83
2023/09/19 08:52:33;;;;;;;14.00;2.90;;;18.10;1.00;;;;;;5153746;27;20808;-82
2023/09/19 08:55:04;;;;;;;9.40;2.67;;;18.20;1.00;;;;;;5132466;27;20170;-81
2023/09/19 08:57:35;;;;;;;10.07;3.17;;;18.30;1.00;;;;;;5133581;27;20159;-81
2023/09/19 09:00:09;;;;;;;9.30;2.87;;;18.30;1.00;;;;;;5132104;27;20253;-81
2023/09/19 09:02:41;;;;;;;9.00;2.47;;;18.20;1.00;;;;;;5131120;27;20173;-83
2023/09/19 09:05:10;;;;;;;10.40;2.83;;;18.30;1.00;;;;;;5133231;27;20172;-82
2023/09/19 09:07:37;;;;;;;9.90;2.43;;;18.30;1.00;;;;;;5133291;27;20160;-80
2023/09/19 09:10:03;;;;;;;12.00;2.50;;;18.50;1.00;;;;;;5141024;27;20172;-80
2023/09/19 09:12:30;;;;;;;12.13;2.60;;;18.50;1.00;;;;;;5146192;28;20685;-81
2023/09/19 09:14:57;;;;;;;9.63;2.93;;;18.60;1.00;;;;;;5133335;28;20169;-82
2023/09/19 09:17:26;;;;;;;7.17;2.33;;;18.60;1.00;;;;;;5134089;28;20194;-82
2023/09/19 09:19:58;;;;;;;9.07;2.53;;;18.50;1.00;;;;;;5132220;27;20225;-84
2023/09/19 09:22:24;;;;;;;10.77;2.37;;;18.50;1.00;;;;;;5130337;28;20169;-81
2023/09/19 09:24:57;;;;;;;8.77;2.73;;;18.50;1.00;;;;;;5132199;27;20166;-80
2023/09/19 09:27:24;;;;;;;9.97;2.50;;;18.50;1.00;;;;;;5131332;27;20166;-81
2023/09/19 09:29:51;;;;;;;10.70;2.33;;;18.60;1.00;;;;;;5129803;28;20662;-81
2023/09/19 09:32:28;;;;;;;11.00;2.50;;;18.70;1.00;;;;;;5134432;27;20545;-79
2023/09/19 09:35:01;;;;;;;8.53;2.40;;;18.70;1.00;;;;;;5149131;27;20244;-80
2023/09/19 09:37:30;;;;;;;9.70;2.43;;;18.60;1.00;;;;;;5143253;27;20209;-81
2023/09/19 09:40:19;;;;;;;8.23;2.60;;;18.60;1.00;;;;;;5132237;27;20170;-82
2023/09/19 09:42:52;;;;;;;8.73;2.23;;;18.50;1.00;;;;;;5130200;27;20194;-79
2023/09/19 09:48:03;;;;;;;8.60;2.10;;;18.50;1.00;;;;;;5118615;28;20198;-86
2023/09/19 09:53:08;;;;;;;12.17;3.00;;;18.50;1.00;;;;;;5119638;28;20270;-80
2023/09/19 09:56:00;;;;;;;9.17;2.10;;;18.70;1.00;;;;;;5118008;28;20633;-82
2023/09/19 09:58:29;;;;;;;6.77;1.90;;;18.80;1.00;;;;;;5118087;28;20195;-81
2023/09/19 10:01:08;;;;;;;8.17;2.10;;;18.80;1.00;;;;;;5118413;28;20188;-81
2023/09/19 10:03:39;;;;;;;12.17;2.77;;;18.70;1.00;;;;;;5122538;28;20179;-81
2023/09/19 10:06:26;;;;;;;8.13;2.03;;;18.70;1.00;;;;;;5122756;28;20171;-80
2023/09/19 10:09:05;;;;;;;6.93;1.90;;;18.80;1.00;;;;;;5123805;28;20187;-86
2023/09/19 10:11:31;;;;;;;7.33;2.47;;;18.80;1.00;;;;;;5121908;28;20479;-79
2023/09/19 10:14:01;;;;;;;6.40;1.80;;;18.90;1.00;;;;;;5118031;28;20292;-81
2023/09/19 10:16:31;;;;;;;8.00;2.90;;;19.00;1.00;;;;;;5118186;28;20175;-80
2023/09/19 10:19:01;;;;;;;6.10;1.67;;;19.10;1.00;;;;;;5117047;28;20167;-82
2023/09/19 10:21:30;;;;;;;5.67;1.93;;;19.20;1.00;;;;;;5117704;28;20270;-78
2023/09/19 10:24:00;;;;;;;7.47;2.20;;;19.20;1.00;;;;;;5117081;28;20179;-81
2023/09/19 10:26:31;;;;;;;6.40;1.80;;;19.20;1.00;;;;;;5115931;28;20218;-83
2023/09/19 10:29:00;;;;;;;8.33;1.80;;;19.20;1.00;;;;;;5116167;28;20190;-81
2023/09/19 10:31:28;;;;;;;7.10;1.80;;;19.30;1.00;;;;;;5115782;28;20603;-83
2023/09/19 10:33:57;;;;;;;4.53;1.40;;;19.50;1.00;;;;;;5116073;28;20301;-83
2023/09/19 10:36:29;;;;;;;7.13;1.80;;;19.70;1.00;;;;;;5116880;28;20196;-82
2023/09/19 10:38:58;;;;;;;10.07;2.53;;;19.80;1.00;;;;;;5115910;28;20183;-80
2023/09/19 10:41:27;;;;;;;9.90;1.90;;;19.70;1.00;;;;;;5117062;28;20619;-86
2023/09/19 10:43:54;;;;;;;8.60;1.70;;;19.70;1.00;;;;;;5117104;28;20184;-81
2023/09/19 10:46:20;;;;;;;4.70;1.60;;;19.80;1.00;;;;;;5116070;28;20640;-83
2023/09/19 10:48:48;;;;;;;5.93;1.53;;;19.80;1.00;;;;;;5119242;28;20177;-81
2023/09/19 10:51:23;;;;;;;9.03;2.27;;;19.70;1.00;;;;;;5124309;28;20224;-82
2023/09/19 10:54:21;;;;;;;4.37;1.27;;;19.90;1.00;;;;;;5116203;28;20262;-81
2023/09/19 10:56:51;;;;;;;6.27;1.60;;;20.10;1.00;;;;;;5114541;28;20183;-81
2023/09/19 10:59:18;;;;;;;5.33;1.60;;;20.10;1.00;;;;;;5116477;28;20194;-81
2023/09/19 11:01:51;;;;;;;5.33;1.47;;;20.00;1.00;;;;;;5119939;28;20259;-81
2023/09/19 11:04:35;;;;;;;6.57;1.90;;;20.00;1.00;;;;;;5120897;28;20179;-81
2023/09/19 11:07:04;;;;;;;9.37;1.80;;;20.00;1.00;;;;;;5118377;28;20688;-82
2023/09/19 11:09:46;;;;;;;6.63;1.50;;;19.90;1.00;;;;;;5115307;28;20173;-82
2023/09/19 11:12:35;;;;;;;5.90;1.47;;;20.00;1.00;;;;;;5115475;28;20181;-82
2023/09/19 11:15:07;;;;;;;10.57;1.67;;;20.10;1.00;;;;;;5118347;28;20232;-81
2023/09/19 11:17:46;;;;;;;6.50;1.60;;;20.20;1.00;;;;;;5121171;28;20176;-80
2023/09/19 11:22:50;;;;;;;8.17;1.57;;;20.40;99.90;;;;;;5117296;28;20183;-80
2023/09/19 11:25:34;;;;;;;5.40;1.43;;;20.60;99.90;;;;;;5116149;28;20217;-79
2023/09/19 11:28:07;;;;;;;5.40;1.60;;;20.60;99.90;;;;;;5116906;28;20163;-80
2023/09/19 11:30:34;;;;;;;3.97;1.37;;;20.60;99.90;;;;;;5115238;28;20551;-86
2023/09/19 11:33:33;;;;;;;5.97;1.53;;;20.60;99.90;;;;;;5115532;28;20218;-81
2023/09/19 11:36:05;;;;;;;6.00;1.77;;;20.50;99.90;;;;;;5115432;28;20179;-83
2023/09/19 11:38:52;;;;;;;4.83;1.90;;;20.50;99.90;;;;;;5115694;28;20635;-84
2023/09/19 11:41:30;;;;;;;4.23;1.33;;;20.40;1.00;;;;;;5114436;28;20760;-82
2023/09/19 11:44:03;;;;;;;4.50;1.60;;;20.50;99.90;;;;;;5114563;28;20174;-85
2023/09/19 11:46:33;;;;;;;5.30;1.33;;;20.60;99.90;;;;;;5115236;28;20155;-87
2023/09/19 11:49:31;;;;;;;3.83;1.53;;;20.50;99.90;;;;;;5116055;28;20188;-82
2023/09/19 11:51:55;;;;;;;8.43;1.93;;;20.40;99.90;;;;;;5115449;28;20175;-81
2023/09/19 11:54:22;;;;;;;6.80;1.70;;;20.60;99.90;;;;;;5116338;28;20338;-81
2023/09/19 11:56:53;;;;;;;5.17;1.50;;;20.60;99.90;;;;;;5115137;28;20174;-82
2023/09/19 11:59:24;;;;;;;5.50;1.40;;;20.60;99.90;;;;;;5114607;28;20174;-84
2023/09/19 12:01:57;;;;;;;6.17;1.30;;;20.70;99.90;;;;;;5114872;28;20168;-81
2023/09/19 12:04:45;;;;;;;6.30;1.70;;;20.70;99.90;;;;;;5114591;28;20169;-81
2023/09/19 12:07:18;;;;;;;6.67;1.50;;;20.60;99.90;;;;;;5115072;28;20171;-81
2023/09/19 12:10:06;;;;;;;6.13;1.57;;;20.70;99.90;;;;;;5114724;28;20176;-82
2023/09/19 12:12:33;;;;;;;5.03;1.33;;;20.70;99.90;;;;;;5116915;28;20161;-82
2023/09/19 12:14:59;;;;;;;9.60;1.70;;;20.70;99.90;;;;;;5117354;28;20720;-80
2023/09/19 12:17:40;;;;;;;7.17;1.50;;;20.70;99.90;;;;;;5115124;28;20237;-80
2023/09/19 12:20:13;;;;;;;3.33;1.27;;;20.70;99.90;;;;;;5114827;28;20866;-81
2023/09/19 12:22:40;;;;;;;5.53;1.60;;;20.70;99.90;;;;;;5113364;28;20169;-82
2023/09/19 12:25:07;;;;;;;3.50;1.40;;;20.80;99.90;;;;;;5115258;28;20191;-82
2023/09/19 12:27:48;;;;;;;6.03;1.50;;;20.80;99.90;;;;;;5115124;28;20190;-85
2023/09/19 12:30:14;;;;;;;4.33;1.50;;;20.70;99.90;;;;;;5115505;28;20252;-81
2023/09/19 12:32:40;;;;;;;4.87;1.60;;;20.70;99.90;;;;;;5134413;28;20205;-78
2023/09/19 12:35:17;;;;;;;6.13;1.50;;;20.70;99.90;;;;;;5127328;28;20328;-82
2023/09/19 12:37:53;;;;;;;7.73;1.50;;;20.70;99.90;;;;;;5119346;28;20169;-80
2023/09/19 12:40:27;;;;;;;5.07;1.50;;;20.60;99.90;;;;;;5116359;28;20165;-81
2023/09/19 12:42:58;;;;;;;4.10;1.20;;;20.60;99.90;;;;;;5115823;28;20168;-81
2023/09/19 12:45:24;;;;;;;5.77;1.60;;;20.50;99.90;;;;;;5114572;28;20172;-83
2023/09/19 12:48:20;;;;;;;4.93;1.40;;;20.50;99.90;;;;;;5116380;28;20161;-79
2023/09/19 12:51:16;;;;;;;7.90;1.50;;;20.40;1.00;;;;;;5115168;28;20178;-81
2023/09/19 12:53:46;;;;;;;6.33;1.70;;;20.60;1.00;;;;;;5114593;28;20215;-81
2023/09/19 12:56:15;;;;;;;4.37;1.40;;;20.70;1.00;;;;;;5127849;28;20204;-78
2023/09/19 12:58:55;;;;;;;5.10;1.20;;;20.60;99.90;;;;;;5133012;28;20164;-80
2023/09/19 13:01:27;;;;;;;7.03;1.80;;;20.60;1.00;;;;;;5115106;28;20177;-82
2023/09/19 13:04:19;;;;;;;8.93;1.77;;;20.70;1.00;;;;;;5115683;28;20579;-81
2023/09/19 13:06:48;;;;;;;4.40;1.10;;;20.60;1.00;;;;;;5114416;28;20205;-81
2023/09/19 13:09:15;;;;;;;7.67;1.40;;;20.70;1.00;;;;;;5116163;28;20165;-81